EGQL/ADX METAR and TAF weather

Enter ICAO airport designator
Station Type Date Time Source
EGQL METAR 2019/04/22 19:50 UTC NOAA

EGQL 221950Z 06008KT 7000 HZ SCT170 09/08 Q1006 WHT


Station Type Date Time Source
EGQL Decoded METAR 2019/04/22 19:50 UTC NOAA

Leuchars, United Kingdom (EGQL) 56-23N 002-52W 0M
Apr 22, 2019 - 03:50 PM EDT / 2019.04.22 1950 UTC
Wind: from the ENE (060 degrees) at 9 MPH (8 KT):0
Visibility: 4 mile(s):0
Sky conditions: partly cloudy
Weather: haze
Temperature: 48 F (9 C)
Dew Point: 46 F (8 C)
Relative Humidity: 93%
Pressure (altimeter): 29.71 in. Hg (1006 hPa)
ob: EGQL 221950Z 06008KT 7000 HZ SCT170 09/08 Q1006 WHT
cycle: 20

Station Type Date Time Source
EGQL TAF 2011/07/27 06:03 UTC NOAA

TAF TAF
AMD EGQL 270424Z 2706/2724 14005KT 9999 BKN020 PROB30
TEMPO 2706/2708 SCT012
BECMG 2708/2710 SCT025

Example: see airport list